Time;durP1;ratioP1;P1;durP2;ratioP2;P2;SDS_P1;SDS_P2;PMS_P1;PMS_P2;Temp;Humidity;BMP_temperature;BMP_pressure;BME280_temperature;BME280_humidity;BME280_pressure;Samples;Min_cycle;Max_cycle;Signal;HPM_P1;HPM_P2
2021/06/06 00:01:08;;;;;;;55.83;38.33;;;16.90;99.90;;;;;;5049248;28;20030;-84
2021/06/06 00:03:43;;;;;;;58.35;40.42;;;16.90;99.90;;;;;;5047831;28;20044;-84
2021/06/06 00:06:22;;;;;;;60.05;41.58;;;16.90;99.90;;;;;;5050688;28;20037;-85
2021/06/06 00:08:49;;;;;;;60.05;41.33;;;16.90;99.90;;;;;;5052885;28;20032;-84
2021/06/06 00:11:22;;;;;;;60.42;41.22;;;16.90;99.90;;;;;;5052239;28;20037;-83
2021/06/06 00:13:50;;;;;;;62.95;41.83;;;16.90;99.90;;;;;;5051092;28;20513;-84
2021/06/06 00:16:30;;;;;;;59.92;42.42;;;16.80;99.90;;;;;;5052134;28;20048;-83
2021/06/06 00:18:57;;;;;;;62.90;41.30;;;16.80;99.90;;;;;;5037967;28;20040;-80
2021/06/06 00:21:26;;;;;;;64.50;45.53;;;16.80;99.90;;;;;;5042071;28;20037;-83
2021/06/06 00:23:53;;;;;;;61.33;41.97;;;16.80;99.90;;;;;;5048778;28;20028;-84
2021/06/06 00:26:19;;;;;;;67.13;44.42;;;16.80;99.90;;;;;;5051042;28;20033;-83
2021/06/06 00:28:46;;;;;;;67.50;44.25;;;16.80;99.90;;;;;;5053361;28;20040;-82
2021/06/06 00:31:13;;;;;;;69.30;44.55;;;16.70;99.90;;;;;;5059387;28;20032;-83
2021/06/06 00:33:39;;;;;;;68.65;47.85;;;16.70;99.90;;;;;;5044209;28;20057;-84
2021/06/06 00:36:08;;;;;;;78.43;50.90;;;16.70;99.90;;;;;;5051616;28;20057;-82
2021/06/06 00:38:35;;;;;;;77.85;49.55;;;16.70;99.90;;;;;;5052164;28;20045;-79
2021/06/06 00:41:03;;;;;;;77.07;50.13;;;16.60;99.90;;;;;;5019625;28;20029;-82
2021/06/06 00:43:30;;;;;;;84.60;53.05;;;16.50;99.90;;;;;;5032299;28;20042;-80
2021/06/06 00:45:59;;;;;;;97.40;55.85;;;16.40;99.90;;;;;;5029779;28;20082;-76
2021/06/06 00:48:27;;;;;;;106.53;61.33;;;16.30;99.90;;;;;;5030595;28;20068;-75
2021/06/06 00:51:10;;;;;;;123.80;64.93;;;16.20;99.90;;;;;;5013371;28;20037;-76
2021/06/06 00:53:43;;;;;;;142.00;69.80;;;16.00;99.90;;;;;;5030671;28;20048;-76
2021/06/06 00:56:18;;;;;;;156.05;75.65;;;15.80;99.90;;;;;;5030481;28;20038;-77
2021/06/06 00:58:48;;;;;;;170.50;79.22;;;15.70;99.90;;;;;;5023286;28;20037;-77
2021/06/06 01:01:19;;;;;;;193.88;84.85;;;15.70;99.90;;;;;;5011402;28;20033;-78
2021/06/06 01:03:52;;;;;;;198.77;86.88;;;15.70;99.90;;;;;;5016274;28;20060;-79
2021/06/06 01:06:28;;;;;;;202.00;87.25;;;15.60;99.90;;;;;;5031373;28;20036;-80
2021/06/06 01:08:54;;;;;;;223.40;92.78;;;15.60;99.90;;;;;;5031904;28;20040;-80
2021/06/06 01:11:56;;;;;;;227.98;87.45;;;15.60;99.90;;;;;;5031528;28;20037;-79
2021/06/06 01:14:29;;;;;;;242.45;94.50;;;15.60;99.90;;;;;;5013008;28;20038;-80
2021/06/06 01:17:08;;;;;;;248.85;94.65;;;15.60;99.90;;;;;;5011810;28;20045;-80
2021/06/06 01:19:54;;;;;;;258.60;100.03;;;15.60;99.90;;;;;;5011951;28;20487;-80
2021/06/06 01:23:12;;;;;;;270.58;100.13;;;15.60;99.90;;;;;;5028746;28;20041;-80
2021/06/06 01:25:44;;;;;;;275.63;102.53;;;15.60;99.90;;;;;;4951578;29;20441;-80
2021/06/06 01:28:39;;;;;;;278.95;102.03;;;15.50;99.90;;;;;;4996244;28;20045;-80
2021/06/06 01:31:09;;;;;;;291.95;105.03;;;15.60;99.90;;;;;;5022111;28;20041;-79
2021/06/06 01:33:42;;;;;;;295.70;107.10;;;15.60;99.90;;;;;;5029522;28;20054;-80
2021/06/06 01:36:23;;;;;;;308.23;111.47;;;15.50;99.90;;;;;;5028011;28;20474;-80
2021/06/06 01:39:16;;;;;;;298.33;111.95;;;15.60;99.90;;;;;;5030027;28;20044;-80
2021/06/06 01:41:46;;;;;;;317.88;110.07;;;15.60;99.90;;;;;;5012020;28;20042;-80
2021/06/06 01:44:20;;;;;;;326.77;114.65;;;15.50;99.90;;;;;;5030807;28;20228;-79
2021/06/06 01:46:52;;;;;;;321.63;114.32;;;15.60;99.90;;;;;;5018870;28;20495;-79
2021/06/06 01:49:21;;;;;;;315.58;109.28;;;15.50;99.90;;;;;;5044732;28;20030;-79
2021/06/06 01:51:56;;;;;;;334.25;114.82;;;15.60;99.90;;;;;;5030821;28;20045;-79
2021/06/06 01:54:29;;;;;;;329.02;115.47;;;15.60;99.90;;;;;;5029487;28;20044;-79
2021/06/06 01:56:57;;;;;;;333.90;116.57;;;15.60;99.90;;;;;;5021470;28;20041;-79
2021/06/06 01:59:34;;;;;;;345.80;117.95;;;15.50;99.90;;;;;;5012792;28;20041;-80
2021/06/06 02:02:04;;;;;;;346.00;117.38;;;15.60;99.90;;;;;;5031287;28;20037;-80
2021/06/06 02:04:30;;;;;;;359.35;117.13;;;15.60;99.90;;;;;;5032119;28;20037;-79
2021/06/06 02:07:04;;;;;;;340.90;116.18;;;15.60;99.90;;;;;;5032133;28;20078;-80
2021/06/06 02:09:50;;;;;;;345.27;121.85;;;15.50;99.90;;;;;;5019856;28;20515;-79
2021/06/06 02:12:48;;;;;;;326.15;115.03;;;15.60;99.90;;;;;;5025884;28;20046;-81
2021/06/06 02:15:24;;;;;;;344.23;117.85;;;15.40;99.90;;;;;;5031257;28;20034;-81
2021/06/06 02:18:08;;;;;;;342.08;120.28;;;15.40;99.90;;;;;;5022473;28;20038;-82
2021/06/06 02:20:43;;;;;;;350.58;119.80;;;15.40;99.90;;;;;;5019667;28;20046;-81
2021/06/06 02:23:12;;;;;;;377.25;127.22;;;15.40;99.90;;;;;;5033361;28;20044;-83
2021/06/06 02:25:41;;;;;;;368.67;126.20;;;15.40;99.90;;;;;;5014892;28;20046;-83
2021/06/06 02:28:49;;;;;;;390.48;128.93;;;15.40;99.90;;;;;;5032185;28;20717;-83
2021/06/06 02:31:25;;;;;;;423.42;129.55;;;15.40;99.90;;;;;;5033629;28;20029;-82
2021/06/06 02:33:54;;;;;;;395.70;129.63;;;15.50;99.90;;;;;;5040299;28;20048;-82
2021/06/06 02:36:29;;;;;;;423.73;133.45;;;15.40;99.90;;;;;;5035523;28;21321;-84
2021/06/06 02:39:15;;;;;;;412.70;130.18;;;15.40;99.90;;;;;;5036422;28;20410;-81
2021/06/06 02:41:51;;;;;;;430.13;129.65;;;15.40;99.90;;;;;;5035886;28;20482;-82
2021/06/06 02:44:26;;;;;;;415.42;129.30;;;15.40;99.90;;;;;;5019492;28;20490;-82
2021/06/06 02:47:04;;;;;;;411.15;131.70;;;15.40;99.90;;;;;;5028883;28;20379;-82
2021/06/06 02:49:40;;;;;;;435.50;132.63;;;15.40;99.90;;;;;;5029945;28;20056;-82
2021/06/06 02:52:39;;;;;;;435.58;131.45;;;15.40;99.90;;;;;;5036565;28;20099;-82
2021/06/06 02:55:14;;;;;;;445.48;134.13;;;15.40;99.90;;;;;;5009124;28;20506;-82
2021/06/06 02:57:49;;;;;;;468.77;138.30;;;15.40;99.90;;;;;;5017884;28;20045;-82
2021/06/06 03:00:18;;;;;;;419.42;133.82;;;15.40;99.90;;;;;;5044951;28;20057;-81
2021/06/06 03:02:55;;;;;;;423.92;136.57;;;15.40;99.90;;;;;;5053216;28;20052;-81
2021/06/06 03:05:25;;;;;;;404.10;135.27;;;15.40;99.90;;;;;;5035832;28;20040;-81
2021/06/06 03:07:56;;;;;;;412.52;136.65;;;15.40;99.90;;;;;;5036253;28;20494;-81
2021/06/06 03:10:30;;;;;;;431.63;135.15;;;15.40;99.90;;;;;;5036280;28;20056;-81
2021/06/06 03:13:01;;;;;;;433.55;137.85;;;15.40;99.90;;;;;;5053385;28;20402;-81
2021/06/06 03:15:33;;;;;;;427.50;136.57;;;15.40;99.90;;;;;;5026283;28;20041;-81
2021/06/06 03:18:02;;;;;;;416.73;135.48;;;15.30;99.90;;;;;;5036287;28;20041;-82
2021/06/06 03:20:34;;;;;;;423.95;140.73;;;15.30;99.90;;;;;;5052178;28;20032;-81
2021/06/06 03:23:06;;;;;;;407.08;134.05;;;15.30;99.90;;;;;;5036174;28;20041;-81
2021/06/06 03:25:51;;;;;;;423.42;135.40;;;15.30;99.90;;;;;;5035751;28;20041;-80
2021/06/06 03:28:26;;;;;;;398.45;133.00;;;15.30;99.90;;;;;;5053040;28;20106;-80
2021/06/06 03:31:17;;;;;;;416.02;132.40;;;15.30;99.90;;;;;;5051845;28;20044;-80
2021/06/06 03:33:49;;;;;;;;;;;15.30;99.90;;;;;;5035764;28;20063;-79
2021/06/06 03:36:32;;;;;;;422.30;131.32;;;15.20;99.90;;;;;;5026179;28;19916;-79
2021/06/06 03:39:02;;;;;;;417.90;136.20;;;15.30;99.90;;;;;;5033827;28;20033;-78
2021/06/06 03:41:31;;;;;;;427.35;136.70;;;15.20;99.90;;;;;;5037944;28;20029;-79
2021/06/06 03:43:59;;;;;;;425.33;138.07;;;15.20;99.90;;;;;;5052791;28;20041;-80
2021/06/06 03:46:27;;;;;;;410.10;135.93;;;15.20;99.90;;;;;;5051575;28;20057;-80
2021/06/06 03:48:57;;;;;;;439.67;139.77;;;15.20;99.90;;;;;;5035539;28;20470;-80
2021/06/06 03:51:26;;;;;;;413.77;138.77;;;15.20;99.90;;;;;;5036725;28;20045;-79
2021/06/06 03:53:53;;;;;;;413.70;140.43;;;15.20;99.90;;;;;;5035240;28;20053;-79
2021/06/06 03:56:20;;;;;;;401.55;138.98;;;15.20;99.90;;;;;;5062778;28;20256;-80
2021/06/06 03:58:47;;;;;;;403.70;136.10;;;15.20;99.90;;;;;;5067082;28;20051;-79
2021/06/06 04:01:14;;;;;;;375.45;133.55;;;15.20;99.90;;;;;;5039435;28;20048;-79
2021/06/06 04:03:42;;;;;;;408.85;138.40;;;15.10;99.90;;;;;;5030238;28;20045;-79
2021/06/06 04:06:09;;;;;;;386.50;135.35;;;15.10;99.90;;;;;;4999303;28;20498;-79
2021/06/06 04:08:40;;;;;;;390.35;139.63;;;15.10;99.90;;;;;;5034497;28;20049;-79
2021/06/06 04:11:12;;;;;;;403.13;134.70;;;15.10;99.90;;;;;;5034619;28;20393;-80
2021/06/06 04:13:44;;;;;;;406.58;135.68;;;15.00;99.90;;;;;;5051951;28;20036;-79
2021/06/06 04:16:13;;;;;;;406.88;140.45;;;15.00;99.90;;;;;;5034532;28;20056;-79
2021/06/06 04:18:40;;;;;;;403.40;139.50;;;15.10;99.90;;;;;;5052612;28;20036;-79
2021/06/06 04:21:14;;;;;;;393.85;138.30;;;15.10;99.90;;;;;;5034552;28;20036;-78
2021/06/06 04:23:40;;;;;;;368.27;133.07;;;15.10;99.90;;;;;;5034677;28;20493;-79
2021/06/06 04:26:07;;;;;;;392.30;136.70;;;15.10;99.90;;;;;;5051937;28;20429;-79
2021/06/06 04:28:38;;;;;;;391.52;134.63;;;15.10;99.90;;;;;;5034902;28;20040;-78
2021/06/06 04:31:11;;;;;;;357.95;129.25;;;15.10;99.90;;;;;;5021709;28;20470;-77
2021/06/06 04:33:38;;;;;;;335.73;127.60;;;15.10;99.90;;;;;;5049638;28;20049;-76
2021/06/06 04:36:07;;;;;;;340.58;128.60;;;15.20;99.90;;;;;;5032896;28;20049;-77
2021/06/06 04:38:35;;;;;;;361.85;136.43;;;15.20;99.90;;;;;;5033974;28;20037;-78
2021/06/06 04:41:09;;;;;;;345.27;129.20;;;15.20;99.90;;;;;;5018620;28;20040;-79
2021/06/06 04:43:38;;;;;;;345.55;127.10;;;15.20;99.90;;;;;;5034444;28;20045;-77
2021/06/06 04:46:05;;;;;;;371.52;130.98;;;15.20;99.90;;;;;;5030126;28;20057;-79
2021/06/06 04:48:35;;;;;;;330.92;126.45;;;15.30;99.90;;;;;;5019118;28;20489;-76
2021/06/06 04:51:05;;;;;;;305.75;123.30;;;15.30;99.90;;;;;;5041538;28;20467;-79
2021/06/06 04:53:37;;;;;;;321.45;123.25;;;15.20;99.90;;;;;;5033981;28;20394;-77
2021/06/06 04:56:12;;;;;;;307.73;119.90;;;15.20;99.90;;;;;;5033757;28;20052;-76
2021/06/06 04:58:40;;;;;;;281.42;116.20;;;15.20;99.90;;;;;;5052023;28;20458;-77
2021/06/06 05:01:10;;;;;;;299.48;119.07;;;15.20;99.90;;;;;;5033116;28;20033;-77
2021/06/06 05:03:38;;;;;;;274.63;116.30;;;15.20;99.90;;;;;;5033073;28;20052;-78
2021/06/06 05:06:07;;;;;;;267.67;112.55;;;15.20;99.90;;;;;;5032757;28;20478;-77
2021/06/06 05:08:34;;;;;;;259.38;109.68;;;15.20;99.90;;;;;;5033638;28;20056;-76
2021/06/06 05:11:02;;;;;;;236.15;110.88;;;15.10;99.90;;;;;;5033717;28;20039;-78
2021/06/06 05:13:29;;;;;;;237.52;105.55;;;15.20;99.90;;;;;;5050943;28;20371;-76
2021/06/06 05:15:55;;;;;;;226.05;104.43;;;15.10;99.90;;;;;;5049959;28;20037;-76
2021/06/06 05:18:25;;;;;;;227.88;102.72;;;15.20;99.90;;;;;;5049795;28;20021;-76
2021/06/06 05:20:55;;;;;;;228.90;104.38;;;15.20;99.90;;;;;;5033793;28;20060;-76
2021/06/06 05:23:26;;;;;;;228.45;104.85;;;15.10;99.90;;;;;;5050127;28;20587;-75
2021/06/06 05:25:56;;;;;;;198.30;95.45;;;15.20;99.90;;;;;;5033875;28;20434;-76
2021/06/06 05:28:26;;;;;;;214.40;99.50;;;15.20;99.90;;;;;;5051043;28;20028;-77
2021/06/06 05:30:52;;;;;;;201.97;98.37;;;15.20;99.90;;;;;;5051189;28;20036;-76
2021/06/06 05:33:18;;;;;;;204.18;95.93;;;15.20;99.90;;;;;;5050369;28;20055;-76
2021/06/06 05:35:45;;;;;;;216.48;99.90;;;15.20;99.90;;;;;;5051347;28;20036;-76
2021/06/06 05:38:14;;;;;;;205.13;96.53;;;15.20;99.90;;;;;;5034958;28;20033;-76
2021/06/06 05:40:41;;;;;;;208.23;97.15;;;15.10;99.90;;;;;;5047345;28;20458;-77
2021/06/06 05:43:09;;;;;;;217.00;97.18;;;15.20;99.90;;;;;;5031654;28;20037;-77
2021/06/06 05:45:36;;;;;;;217.18;99.00;;;15.20;99.90;;;;;;5048559;28;20033;-76
2021/06/06 05:48:03;;;;;;;222.05;99.75;;;15.20;99.90;;;;;;5050992;28;20041;-76
2021/06/06 05:50:32;;;;;;;201.00;95.05;;;15.20;99.90;;;;;;5032458;28;20498;-78
2021/06/06 05:53:17;;;;;;;182.18;94.30;;;15.10;99.90;;;;;;5050295;28;20052;-76
2021/06/06 05:55:44;;;;;;;192.20;94.40;;;15.10;99.90;;;;;;5050598;28;20051;-76
2021/06/06 05:58:12;;;;;;;197.77;95.72;;;15.10;99.90;;;;;;5032261;28;20051;-76
2021/06/06 06:00:41;;;;;;;190.77;94.35;;;15.10;99.90;;;;;;5051080;28;20033;-76
2021/06/06 06:03:09;;;;;;;186.63;92.80;;;15.10;99.90;;;;;;5049187;28;20037;-76
2021/06/06 06:05:36;;;;;;;195.93;93.22;;;15.20;99.90;;;;;;5033265;28;20045;-76
2021/06/06 06:08:17;;;;;;;202.90;93.70;;;15.20;99.90;;;;;;5049486;28;20044;-76
2021/06/06 06:10:44;;;;;;;197.02;95.22;;;15.20;99.90;;;;;;5049388;28;20403;-76
2021/06/06 06:13:11;;;;;;;199.68;92.75;;;15.20;99.90;;;;;;5030449;28;20040;-76
2021/06/06 06:15:37;;;;;;;191.93;94.80;;;15.20;99.90;;;;;;5032060;28;20038;-76
2021/06/06 06:18:04;;;;;;;190.68;93.43;;;15.20;99.90;;;;;;5034020;28;20037;-76
2021/06/06 06:20:30;;;;;;;204.18;95.13;;;15.30;99.90;;;;;;5050175;28;20033;-76
2021/06/06 06:22:56;;;;;;;184.77;92.97;;;15.20;99.90;;;;;;5050448;28;20454;-77
2021/06/06 06:25:23;;;;;;;171.02;88.45;;;15.30;99.90;;;;;;5048833;28;20043;-76
2021/06/06 06:27:49;;;;;;;172.70;89.60;;;15.20;99.90;;;;;;5031964;28;20034;-76
2021/06/06 06:30:37;;;;;;;161.75;86.18;;;15.30;99.90;;;;;;5023523;28;20048;-76
2021/06/06 06:33:04;;;;;;;149.02;84.15;;;15.30;99.90;;;;;;5037271;28;20041;-76
2021/06/06 06:35:32;;;;;;;151.18;81.18;;;15.30;99.90;;;;;;5048885;28;20053;-77
2021/06/06 06:38:00;;;;;;;140.68;78.10;;;15.20;99.90;;;;;;5049585;28;20037;-77
2021/06/06 06:40:27;;;;;;;135.00;75.18;;;15.20;99.90;;;;;;5050852;28;20457;-77
2021/06/06 06:42:55;;;;;;;133.10;75.25;;;15.10;99.90;;;;;;5036015;28;20033;-77
2021/06/06 06:45:27;;;;;;;133.88;75.82;;;15.20;99.90;;;;;;5047564;28;20386;-77
2021/06/06 06:48:13;;;;;;;132.15;73.93;;;15.20;99.90;;;;;;5050698;28;20037;-77
2021/06/06 06:50:40;;;;;;;115.45;70.72;;;15.20;99.90;;;;;;5049226;28;20025;-76
2021/06/06 06:53:07;;;;;;;105.43;64.78;;;15.20;99.90;;;;;;5049482;28;20474;-77
2021/06/06 06:55:34;;;;;;;116.80;71.00;;;15.30;99.90;;;;;;5049577;28;20036;-76
2021/06/06 06:58:02;;;;;;;121.80;70.55;;;15.40;99.90;;;;;;5050189;28;20096;-77
2021/06/06 07:00:37;;;;;;;100.70;63.25;;;15.50;99.90;;;;;;5049672;28;20034;-77
2021/06/06 07:03:04;;;;;;;101.43;63.55;;;15.50;99.90;;;;;;5053504;28;20478;-75
2021/06/06 07:05:31;;;;;;;94.07;59.88;;;15.60;99.90;;;;;;5052298;28;20040;-75
2021/06/06 07:07:57;;;;;;;86.22;58.15;;;15.70;99.90;;;;;;5054270;28;20037;-76
2021/06/06 07:10:27;;;;;;;88.75;59.10;;;15.80;99.90;;;;;;5053778;28;20037;-76
2021/06/06 07:12:53;;;;;;;88.88;57.33;;;15.90;99.90;;;;;;5038332;28;20068;-76
2021/06/06 07:15:20;;;;;;;74.82;51.72;;;16.00;99.90;;;;;;5047264;28;20033;-77
2021/06/06 07:17:47;;;;;;;76.78;51.45;;;16.00;99.90;;;;;;5070999;28;20036;-77
2021/06/06 07:20:17;;;;;;;79.10;52.88;;;16.10;99.90;;;;;;5070727;28;20370;-77
2021/06/06 07:22:43;;;;;;;72.90;49.72;;;16.20;99.90;;;;;;5055035;28;20033;-76
2021/06/06 07:25:11;;;;;;;73.43;53.08;;;16.20;99.90;;;;;;5053271;28;20390;-78
2021/06/06 07:27:40;;;;;;;71.97;50.65;;;16.20;99.90;;;;;;5053523;28;20045;-76
2021/06/06 07:30:10;;;;;;;66.30;48.33;;;16.30;99.90;;;;;;5052608;28;20378;-76
2021/06/06 07:32:37;;;;;;;68.00;49.53;;;16.20;99.90;;;;;;5053936;28;20033;-77
2021/06/06 07:35:05;;;;;;;71.10;47.53;;;16.20;99.90;;;;;;5053716;28;20041;-77
2021/06/06 07:37:33;;;;;;;63.13;45.53;;;16.30;99.90;;;;;;5052877;28;20036;-76
2021/06/06 07:40:00;;;;;;;66.55;47.20;;;16.40;99.90;;;;;;5053242;28;20059;-77
2021/06/06 07:42:26;;;;;;;78.32;52.30;;;16.40;99.90;;;;;;5050777;28;20052;-77
2021/06/06 07:44:52;;;;;;;70.47;46.67;;;16.40;99.90;;;;;;5049843;28;20064;-77
2021/06/06 07:47:18;;;;;;;68.80;48.03;;;16.60;99.90;;;;;;5039402;28;20056;-76
2021/06/06 07:49:45;;;;;;;66.80;46.88;;;16.60;99.90;;;;;;5009603;28;20038;-77
2021/06/06 07:52:11;;;;;;;66.30;46.90;;;16.70;99.90;;;;;;5035421;28;20029;-77
2021/06/06 07:54:37;;;;;;;63.55;45.08;;;16.60;99.90;;;;;;5040637;28;20493;-77
2021/06/06 07:57:04;;;;;;;60.05;45.88;;;16.60;99.90;;;;;;5046078;28;20134;-77
2021/06/06 07:59:33;;;;;;;53.90;40.78;;;16.60;99.90;;;;;;5045063;28;20040;-77
2021/06/06 08:02:00;;;;;;;55.97;41.10;;;16.50;99.90;;;;;;5050834;28;20404;-77
2021/06/06 08:04:26;;;;;;;59.03;41.55;;;16.60;99.90;;;;;;5033961;28;20048;-77
2021/06/06 08:06:53;;;;;;;57.47;42.60;;;16.60;99.90;;;;;;5052400;28;20417;-76
2021/06/06 08:09:19;;;;;;;51.83;39.05;;;16.60;99.90;;;;;;5050962;28;20025;-77
2021/06/06 08:11:46;;;;;;;48.88;37.25;;;16.70;99.90;;;;;;5052337;28;20037;-76
2021/06/06 08:14:12;;;;;;;43.13;33.38;;;16.80;99.90;;;;;;5049996;28;20037;-77
2021/06/06 08:16:39;;;;;;;45.33;33.72;;;16.90;99.90;;;;;;5033236;28;20045;-77
2021/06/06 08:19:05;;;;;;;42.60;31.73;;;16.90;99.90;;;;;;5053684;28;20040;-75
2021/06/06 08:21:40;;;;;;;43.03;34.22;;;16.90;99.90;;;;;;5052074;28;20029;-76
2021/06/06 08:24:08;;;;;;;44.38;31.73;;;17.10;99.90;;;;;;5052319;28;20430;-77
2021/06/06 08:26:35;;;;;;;38.83;31.02;;;17.20;99.90;;;;;;5051831;28;20037;-77
2021/06/06 08:29:02;;;;;;;39.13;29.08;;;17.30;99.90;;;;;;5045060;28;20040;-77
2021/06/06 08:31:31;;;;;;;35.17;25.83;;;17.50;99.90;;;;;;5050029;28;20463;-79
2021/06/06 08:33:58;;;;;;;31.80;26.85;;;17.40;99.90;;;;;;5042899;28;20048;-77
2021/06/06 08:36:29;;;;;;;33.10;26.15;;;17.40;99.90;;;;;;5042989;28;20374;-77
2021/06/06 08:38:56;;;;;;;29.92;24.00;;;17.30;99.90;;;;;;5042948;28;20037;-78
2021/06/06 08:41:57;;;;;;;30.00;24.60;;;17.40;99.90;;;;;;5033996;28;20124;-79
2021/06/06 08:44:28;;;;;;;29.95;25.05;;;17.40;99.90;;;;;;5042028;28;20419;-79
2021/06/06 08:47:17;;;;;;;28.05;23.15;;;17.50;99.90;;;;;;5050916;28;20045;-77
2021/06/06 08:49:46;;;;;;;29.48;22.75;;;17.50;99.90;;;;;;5051117;28;20037;-76
2021/06/06 08:52:37;;;;;;;32.38;22.25;;;17.80;99.90;;;;;;5051384;28;20036;-78
2021/06/06 08:55:38;;;;;;;25.13;22.02;;;18.00;99.90;;;;;;5047768;28;20431;-76
2021/06/06 08:58:36;;;;;;;23.60;19.60;;;18.10;99.90;;;;;;5046191;28;20490;-87
2021/06/06 09:01:11;;;;;;;23.48;20.50;;;18.10;99.90;;;;;;5034307;28;20032;-87
2021/06/06 09:03:38;;;;;;;23.63;20.05;;;18.10;99.90;;;;;;5022049;28;20403;-88
2021/06/06 09:06:08;;;;;;;25.15;21.17;;;18.20;99.90;;;;;;5046970;28;20033;-83
2021/06/06 09:08:38;;;;;;;26.17;20.60;;;18.00;99.90;;;;;;5034437;28;20487;-84
2021/06/06 09:11:09;;;;;;;23.67;20.63;;;17.90;99.90;;;;;;5036737;28;20038;-82
2021/06/06 09:13:35;;;;;;;26.33;22.70;;;17.70;99.90;;;;;;5053080;28;20056;-86
2021/06/06 09:16:54;;;;;;;27.33;23.27;;;17.80;99.90;;;;;;5035063;28;20041;-88
2021/06/06 09:19:22;;;;;;;24.48;20.98;;;17.80;99.90;;;;;;5016273;28;20414;-86
2021/06/06 09:21:57;;;;;;;25.85;21.63;;;17.70;99.90;;;;;;5024969;28;20466;-88
2021/06/06 09:24:47;;;;;;;26.65;21.67;;;17.80;99.90;;;;;;5045143;28;20042;-86
2021/06/06 09:27:25;;;;;;;27.85;22.80;;;17.70;99.90;;;;;;5053142;28;20047;-90
2021/06/06 09:30:07;;;;;;;25.35;21.45;;;17.70;99.90;;;;;;5053203;28;20036;-91
2021/06/06 09:32:33;;;;;;;24.85;21.38;;;17.90;99.90;;;;;;5053461;28;20068;-91
2021/06/06 09:35:28;;;;;;;25.70;20.60;;;18.20;99.90;;;;;;5042962;28;20049;-83
2021/06/06 09:38:06;;;;;;;24.25;20.90;;;18.70;99.90;;;;;;5057059;28;20025;-85
2021/06/06 09:40:39;;;;;;;24.50;21.58;;;18.80;99.90;;;;;;5075648;28;20035;-83
2021/06/06 09:43:06;;;;;;;23.25;20.67;;;18.60;99.90;;;;;;5075052;28;20021;-85
2021/06/06 09:45:35;;;;;;;23.98;21.45;;;18.60;99.90;;;;;;5073130;28;20025;-84
2021/06/06 09:48:15;;;;;;;23.58;21.05;;;18.60;99.90;;;;;;5056534;28;20055;-86
2021/06/06 09:50:47;;;;;;;25.23;22.52;;;18.80;99.90;;;;;;5036835;28;20461;-85
2021/06/06 09:53:28;;;;;;;23.33;20.85;;;18.90;99.90;;;;;;5051129;28;20025;-86
2021/06/06 09:56:06;;;;;;;23.65;20.30;;;19.20;99.90;;;;;;5050308;28;20060;-83
2021/06/06 09:58:38;;;;;;;27.90;21.08;;;19.10;99.90;;;;;;5050639;28;20052;-84
2021/06/06 10:01:19;;;;;;;23.83;21.33;;;18.90;99.90;;;;;;5051162;28;20037;-86
2021/06/06 10:04:00;;;;;;;23.13;20.73;;;18.90;99.90;;;;;;5038441;28;20053;-83
2021/06/06 10:06:41;;;;;;;23.58;20.65;;;18.80;99.90;;;;;;5044851;28;20029;-84
2021/06/06 10:09:18;;;;;;;27.38;21.67;;;18.90;99.90;;;;;;5032554;28;20042;-83
2021/06/06 10:11:48;;;;;;;25.85;22.60;;;18.70;99.90;;;;;;5039138;28;20040;-81
2021/06/06 10:14:19;;;;;;;23.92;21.33;;;18.70;99.90;;;;;;5049807;28;20040;-82
2021/06/06 10:16:47;;;;;;;24.48;19.70;;;18.70;99.90;;;;;;5051668;28;20029;-85
2021/06/06 10:19:34;;;;;;;22.58;20.13;;;18.80;99.90;;;;;;5048286;28;20032;-86
2021/06/06 10:22:09;;;;;;;24.40;20.10;;;19.10;99.90;;;;;;5041366;28;20033;-88
2021/06/06 10:24:41;;;;;;;25.92;21.75;;;19.20;99.90;;;;;;5051571;28;20029;-87
2021/06/06 10:27:51;;;;;;;24.13;19.85;;;18.90;99.90;;;;;;5033391;28;20040;-84
2021/06/06 10:30:25;;;;;;;23.17;19.17;;;18.90;99.90;;;;;;5032079;28;20034;-86
2021/06/06 10:32:58;;;;;;;24.25;18.42;;;19.00;99.90;;;;;;5049918;28;20045;-83
2021/06/06 10:35:29;;;;;;;19.80;16.88;;;19.30;99.90;;;;;;5073107;28;20037;-83
2021/06/06 10:37:58;;;;;;;18.88;16.30;;;19.50;99.90;;;;;;5076987;28;20037;-82
2021/06/06 10:40:30;;;;;;;16.77;15.05;;;19.40;99.90;;;;;;5075815;28;20037;-82
2021/06/06 10:43:05;;;;;;;19.40;15.27;;;19.50;99.90;;;;;;5051713;28;20386;-83
2021/06/06 10:45:55;;;;;;;15.60;13.80;;;19.60;99.90;;;;;;5038547;28;20045;-84
2021/06/06 10:48:32;;;;;;;16.23;13.82;;;19.90;99.90;;;;;;5052868;28;20059;-84
2021/06/06 10:51:25;;;;;;;18.23;14.32;;;20.40;99.90;;;;;;5054462;28;20414;-79
2021/06/06 10:53:57;;;;;;;15.18;13.68;;;20.40;99.60;;;;;;5054606;28;20585;-80
2021/06/06 10:56:35;;;;;;;15.77;14.15;;;20.10;99.60;;;;;;5053423;28;20029;-84
2021/06/06 10:59:06;;;;;;;14.93;12.65;;;20.40;99.90;;;;;;5052593;28;20029;-84
2021/06/06 11:01:49;;;;;;;12.32;11.07;;;20.80;98.80;;;;;;5018233;28;20487;-81
2021/06/06 11:04:17;;;;;;;13.35;11.95;;;21.40;97.10;;;;;;5054452;28;20470;-86
2021/06/06 11:06:47;;;;;;;14.13;12.57;;;21.50;97.80;;;;;;5054097;28;20116;-81
2021/06/06 11:09:24;;;;;;;14.00;12.60;;;21.00;97.30;;;;;;5034384;28;20045;-81
2021/06/06 11:12:09;;;;;;;14.15;12.75;;;20.20;98.10;;;;;;5041527;28;20044;-85
2021/06/06 11:14:40;;;;;;;13.05;11.75;;;19.90;99.20;;;;;;5042464;28;20470;-86
2021/06/06 11:17:13;;;;;;;15.00;13.50;;;20.10;99.90;;;;;;5053815;28;20045;-85
2021/06/06 11:19:40;;;;;;;12.93;11.57;;;19.90;99.90;;;;;;5054625;28;20029;-88
2021/06/06 11:22:06;;;;;;;14.35;11.70;;;20.10;99.90;;;;;;5037075;28;20463;-83
2021/06/06 11:24:48;;;;;;;13.70;12.30;;;20.30;98.50;;;;;;5054178;28;20382;-86
2021/06/06 11:27:25;;;;;;;15.02;12.23;;;20.60;98.30;;;;;;5052707;28;20058;-82
2021/06/06 11:30:29;;;;;;;14.23;11.85;;;20.40;98.20;;;;;;5053306;28;20036;-83
2021/06/06 11:33:03;;;;;;;12.93;11.23;;;20.40;96.90;;;;;;5052340;28;20116;-85
2021/06/06 11:35:40;;;;;;;12.65;11.35;;;20.60;96.20;;;;;;5045221;28;20053;-83
2021/06/06 11:38:18;;;;;;;13.40;12.10;;;20.90;96.20;;;;;;5044481;28;20060;-85
2021/06/06 11:40:51;;;;;;;13.98;12.55;;;21.10;95.20;;;;;;5049939;28;20032;-85
2021/06/06 11:43:23;;;;;;;14.98;13.32;;;20.90;95.00;;;;;;5051990;28;20041;-82
2021/06/06 11:45:52;;;;;;;15.48;12.20;;;20.70;94.90;;;;;;5034630;28;20025;-83
2021/06/06 11:48:37;;;;;;;14.57;12.60;;;20.70;95.10;;;;;;5045546;28;20048;-81
2021/06/06 11:51:13;;;;;;;16.77;12.38;;;20.40;95.50;;;;;;5052143;28;20021;-83
2021/06/06 11:53:42;;;;;;;13.32;11.40;;;20.50;94.80;;;;;;5052388;28;20489;-83
2021/06/06 11:56:22;;;;;;;13.73;12.05;;;20.90;94.20;;;;;;5053807;28;20044;-82
2021/06/06 11:59:20;;;;;;;14.13;12.73;;;21.10;95.30;;;;;;5015988;28;20049;-81
2021/06/06 12:02:10;;;;;;;14.30;12.07;;;20.90;94.90;;;;;;5018414;28;20046;-82
2021/06/06 12:04:38;;;;;;;15.70;12.73;;;21.00;94.50;;;;;;5033580;28;20034;-83
2021/06/06 12:07:18;;;;;;;12.73;11.30;;;20.80;93.70;;;;;;5052271;28;20033;-81
2021/06/06 12:09:47;;;;;;;13.25;11.85;;;20.70;94.80;;;;;;5052865;28;20041;-84
2021/06/06 12:12:29;;;;;;;14.27;12.77;;;20.70;94.70;;;;;;5052158;28;20040;-81
2021/06/06 12:15:08;;;;;;;14.65;12.23;;;20.60;94.50;;;;;;5034990;28;20287;-83
2021/06/06 12:17:37;;;;;;;14.15;12.35;;;20.60;94.60;;;;;;5053177;28;20094;-81
2021/06/06 12:20:12;;;;;;;15.07;12.75;;;20.60;94.90;;;;;;5051217;28;20047;-82
2021/06/06 12:22:41;;;;;;;13.77;12.32;;;20.70;94.40;;;;;;5035588;28;20031;-82
2021/06/06 12:25:24;;;;;;;14.85;12.98;;;20.80;94.30;;;;;;5052209;28;20037;-81
2021/06/06 12:27:58;;;;;;;14.95;12.52;;;20.80;93.80;;;;;;5051732;28;20051;-81
2021/06/06 12:30:47;;;;;;;13.20;11.25;;;20.90;94.30;;;;;;5034359;28;20370;-80
2021/06/06 12:33:16;;;;;;;13.48;12.07;;;20.90;93.60;;;;;;5033984;28;20044;-81
2021/06/06 12:35:52;;;;;;;15.60;13.77;;;20.70;94.30;;;;;;5052412;28;20041;-82
2021/06/06 12:38:21;;;;;;;16.23;13.48;;;20.40;94.70;;;;;;5049613;28;20382;-82
2021/06/06 12:40:48;;;;;;;16.20;13.60;;;20.20;95.60;;;;;;5033783;28;20140;-85
2021/06/06 12:43:21;;;;;;;15.93;12.57;;;20.30;95.40;;;;;;5050592;28;20036;-83
2021/06/06 12:45:48;;;;;;;13.07;11.60;;;20.30;95.10;;;;;;5052119;28;20355;-83
2021/06/06 12:48:23;;;;;;;15.60;12.93;;;20.40;95.10;;;;;;5051707;28;20041;-82
2021/06/06 12:50:50;;;;;;;13.48;11.82;;;20.30;95.20;;;;;;5052172;28;20044;-83